sensor_id;sensor_type;location;lat;lon;timestamp;P1;durP1;ratioP1;P2;durP2;ratioP2
10050;SDS011;5065;46.942;7.432;2023-05-20T00:02:11;13.57;;;9.70;;
10050;SDS011;5065;46.942;7.432;2023-05-20T00:04:39;13.93;;;10.20;;
10050;SDS011;5065;46.942;7.432;2023-05-20T00:07:06;15.83;;;9.93;;
10050;SDS011;5065;46.942;7.432;2023-05-20T00:09:36;14.77;;;10.43;;
10050;SDS011;5065;46.942;7.432;2023-05-20T00:12:05;12.03;;;9.23;;
10050;SDS011;5065;46.942;7.432;2023-05-20T00:14:34;13.70;;;10.43;;
10050;SDS011;5065;46.942;7.432;2023-05-20T00:17:01;12.37;;;9.90;;
10050;SDS011;5065;46.942;7.432;2023-05-20T00:19:28;12.80;;;10.20;;
10050;SDS011;5065;46.942;7.432;2023-05-20T00:21:56;14.70;;;10.57;;
10050;SDS011;5065;46.942;7.432;2023-05-20T00:24:23;12.93;;;10.43;;
10050;SDS011;5065;46.942;7.432;2023-05-20T00:26:52;12.23;;;10.03;;
10050;SDS011;5065;46.942;7.432;2023-05-20T00:29:20;13.17;;;10.17;;
10050;SDS011;5065;46.942;7.432;2023-05-20T00:31:47;14.00;;;10.10;;
10050;SDS011;5065;46.942;7.432;2023-05-20T00:34:14;11.27;;;9.63;;
10050;SDS011;5065;46.942;7.432;2023-05-20T00:36:41;13.50;;;9.30;;
10050;SDS011;5065;46.942;7.432;2023-05-20T00:39:09;13.83;;;9.90;;
10050;SDS011;5065;46.942;7.432;2023-05-20T00:41:36;15.83;;;9.83;;
10050;SDS011;5065;46.942;7.432;2023-05-20T00:44:04;12.67;;;10.13;;
10050;SDS011;5065;46.942;7.432;2023-05-20T00:46:32;12.67;;;9.73;;
10050;SDS011;5065;46.942;7.432;2023-05-20T00:48:59;12.03;;;9.73;;
10050;SDS011;5065;46.942;7.432;2023-05-20T00:51:26;12.77;;;10.07;;
10050;SDS011;5065;46.942;7.432;2023-05-20T00:53:54;13.23;;;10.37;;
10050;SDS011;5065;46.942;7.432;2023-05-20T00:56:21;17.40;;;10.43;;
10050;SDS011;5065;46.942;7.432;2023-05-20T00:58:49;14.37;;;10.40;;
10050;SDS011;5065;46.942;7.432;2023-05-20T01:01:18;16.00;;;10.50;;
10050;SDS011;5065;46.942;7.432;2023-05-20T01:03:45;15.17;;;10.47;;
10050;SDS011;5065;46.942;7.432;2023-05-20T01:06:13;11.83;;;9.67;;
10050;SDS011;5065;46.942;7.432;2023-05-20T01:08:40;14.60;;;11.37;;
10050;SDS011;5065;46.942;7.432;2023-05-20T01:11:10;14.10;;;10.67;;
10050;SDS011;5065;46.942;7.432;2023-05-20T01:13:53;14.97;;;10.40;;
10050;SDS011;5065;46.942;7.432;2023-05-20T01:16:24;15.53;;;11.10;;
10050;SDS011;5065;46.942;7.432;2023-05-20T01:18:53;16.57;;;10.67;;
10050;SDS011;5065;46.942;7.432;2023-05-20T01:21:22;16.83;;;10.83;;
10050;SDS011;5065;46.942;7.432;2023-05-20T01:23:51;12.57;;;11.17;;
10050;SDS011;5065;46.942;7.432;2023-05-20T01:26:18;18.47;;;10.53;;
10050;SDS011;5065;46.942;7.432;2023-05-20T01:28:45;12.73;;;10.70;;
10050;SDS011;5065;46.942;7.432;2023-05-20T01:31:14;15.57;;;11.73;;
10050;SDS011;5065;46.942;7.432;2023-05-20T01:33:47;14.27;;;10.83;;
10050;SDS011;5065;46.942;7.432;2023-05-20T01:36:17;14.20;;;11.43;;
10050;SDS011;5065;46.942;7.432;2023-05-20T01:38:46;14.97;;;11.13;;
10050;SDS011;5065;46.942;7.432;2023-05-20T01:41:16;21.57;;;10.87;;
10050;SDS011;5065;46.942;7.432;2023-05-20T01:43:43;13.70;;;10.47;;
10050;SDS011;5065;46.942;7.432;2023-05-20T01:46:11;12.10;;;9.53;;
10050;SDS011;5065;46.942;7.432;2023-05-20T01:48:38;17.27;;;10.60;;
10050;SDS011;5065;46.942;7.432;2023-05-20T01:51:05;14.13;;;10.17;;
10050;SDS011;5065;46.942;7.432;2023-05-20T01:53:32;15.27;;;10.97;;
10050;SDS011;5065;46.942;7.432;2023-05-20T01:55:59;14.83;;;10.43;;
10050;SDS011;5065;46.942;7.432;2023-05-20T01:58:29;12.27;;;9.67;;
10050;SDS011;5065;46.942;7.432;2023-05-20T02:00:56;15.47;;;10.63;;
10050;SDS011;5065;46.942;7.432;2023-05-20T02:03:24;14.03;;;9.47;;
10050;SDS011;5065;46.942;7.432;2023-05-20T02:05:51;12.20;;;10.27;;
10050;SDS011;5065;46.942;7.432;2023-05-20T02:08:18;12.03;;;9.37;;
10050;SDS011;5065;46.942;7.432;2023-05-20T02:10:46;14.10;;;10.17;;
10050;SDS011;5065;46.942;7.432;2023-05-20T02:13:14;11.93;;;9.60;;
10050;SDS011;5065;46.942;7.432;2023-05-20T02:15:42;10.83;;;8.97;;
10050;SDS011;5065;46.942;7.432;2023-05-20T02:18:10;11.77;;;9.40;;
10050;SDS011;5065;46.942;7.432;2023-05-20T02:20:39;14.17;;;10.53;;
10050;SDS011;5065;46.942;7.432;2023-05-20T02:23:07;12.50;;;9.57;;
10050;SDS011;5065;46.942;7.432;2023-05-20T02:25:34;10.47;;;9.00;;
10050;SDS011;5065;46.942;7.432;2023-05-20T02:28:01;12.57;;;9.30;;
10050;SDS011;5065;46.942;7.432;2023-05-20T02:30:30;10.70;;;8.57;;
10050;SDS011;5065;46.942;7.432;2023-05-20T02:32:59;10.17;;;8.20;;
10050;SDS011;5065;46.942;7.432;2023-05-20T02:35:29;15.43;;;8.87;;
10050;SDS011;5065;46.942;7.432;2023-05-20T02:37:59;11.23;;;8.23;;
10050;SDS011;5065;46.942;7.432;2023-05-20T02:40:27;13.03;;;9.40;;
10050;SDS011;5065;46.942;7.432;2023-05-20T02:42:56;14.23;;;9.30;;
10050;SDS011;5065;46.942;7.432;2023-05-20T02:45:28;13.83;;;10.30;;
10050;SDS011;5065;46.942;7.432;2023-05-20T02:47:55;13.20;;;9.53;;
10050;SDS011;5065;46.942;7.432;2023-05-20T02:50:24;12.73;;;8.97;;
10050;SDS011;5065;46.942;7.432;2023-05-20T02:52:52;16.03;;;9.47;;
10050;SDS011;5065;46.942;7.432;2023-05-20T02:55:20;13.33;;;9.77;;
10050;SDS011;5065;46.942;7.432;2023-05-20T02:57:48;14.80;;;9.43;;
10050;SDS011;5065;46.942;7.432;2023-05-20T03:00:15;13.37;;;9.37;;
10050;SDS011;5065;46.942;7.432;2023-05-20T03:02:43;13.50;;;10.37;;
10050;SDS011;5065;46.942;7.432;2023-05-20T03:05:10;12.50;;;9.43;;
10050;SDS011;5065;46.942;7.432;2023-05-20T03:07:39;16.97;;;10.63;;
10050;SDS011;5065;46.942;7.432;2023-05-20T03:10:06;15.57;;;10.23;;
10050;SDS011;5065;46.942;7.432;2023-05-20T03:12:34;12.47;;;9.97;;
10050;SDS011;5065;46.942;7.432;2023-05-20T03:15:02;12.67;;;9.90;;
10050;SDS011;5065;46.942;7.432;2023-05-20T03:17:29;13.53;;;9.23;;
10050;SDS011;5065;46.942;7.432;2023-05-20T03:19:56;15.83;;;10.30;;
10050;SDS011;5065;46.942;7.432;2023-05-20T03:22:23;15.17;;;10.33;;
10050;SDS011;5065;46.942;7.432;2023-05-20T03:24:52;11.97;;;9.97;;
10050;SDS011;5065;46.942;7.432;2023-05-20T03:27:19;12.93;;;9.93;;
10050;SDS011;5065;46.942;7.432;2023-05-20T03:29:46;10.50;;;9.20;;
10050;SDS011;5065;46.942;7.432;2023-05-20T03:32:13;11.50;;;9.87;;
10050;SDS011;5065;46.942;7.432;2023-05-20T03:34:41;14.87;;;10.17;;
10050;SDS011;5065;46.942;7.432;2023-05-20T03:37:08;13.07;;;9.93;;
10050;SDS011;5065;46.942;7.432;2023-05-20T03:39:35;12.47;;;10.10;;
10050;SDS011;5065;46.942;7.432;2023-05-20T03:42:04;13.80;;;10.70;;
10050;SDS011;5065;46.942;7.432;2023-05-20T03:44:31;13.77;;;10.40;;
10050;SDS011;5065;46.942;7.432;2023-05-20T03:46:59;13.00;;;10.97;;
10050;SDS011;5065;46.942;7.432;2023-05-20T03:49:26;16.10;;;11.03;;
10050;SDS011;5065;46.942;7.432;2023-05-20T03:51:53;14.23;;;11.10;;
10050;SDS011;5065;46.942;7.432;2023-05-20T03:54:21;15.03;;;10.90;;
10050;SDS011;5065;46.942;7.432;2023-05-20T03:56:48;11.43;;;10.23;;
10050;SDS011;5065;46.942;7.432;2023-05-20T03:59:17;13.97;;;11.13;;
10050;SDS011;5065;46.942;7.432;2023-05-20T04:01:46;16.47;;;10.43;;
10050;SDS011;5065;46.942;7.432;2023-05-20T04:04:13;12.70;;;11.40;;
10050;SDS011;5065;46.942;7.432;2023-05-20T04:06:40;13.60;;;11.63;;
10050;SDS011;5065;46.942;7.432;2023-05-20T04:09:07;14.17;;;11.17;;
10050;SDS011;5065;46.942;7.432;2023-05-20T04:11:35;12.07;;;10.83;;
10050;SDS011;5065;46.942;7.432;2023-05-20T04:14:02;14.53;;;11.67;;
10050;SDS011;5065;46.942;7.432;2023-05-20T04:16:30;19.73;;;11.53;;
10050;SDS011;5065;46.942;7.432;2023-05-20T04:18:58;15.00;;;11.93;;
10050;SDS011;5065;46.942;7.432;2023-05-20T04:21:26;13.67;;;12.27;;
10050;SDS011;5065;46.942;7.432;2023-05-20T04:23:54;15.53;;;11.57;;
10050;SDS011;5065;46.942;7.432;2023-05-20T04:26:21;15.57;;;12.07;;
10050;SDS011;5065;46.942;7.432;2023-05-20T04:28:48;17.30;;;11.83;;
10050;SDS011;5065;46.942;7.432;2023-05-20T04:31:15;17.47;;;12.67;;
10050;SDS011;5065;46.942;7.432;2023-05-20T04:33:46;19.97;;;11.17;;
10050;SDS011;5065;46.942;7.432;2023-05-20T04:36:14;14.20;;;11.27;;
10050;SDS011;5065;46.942;7.432;2023-05-20T04:38:41;12.70;;;10.97;;
10050;SDS011;5065;46.942;7.432;2023-05-20T04:41:08;16.10;;;11.20;;
10050;SDS011;5065;46.942;7.432;2023-05-20T04:43:36;12.93;;;11.03;;
10050;SDS011;5065;46.942;7.432;2023-05-20T04:46:04;15.40;;;12.00;;
10050;SDS011;5065;46.942;7.432;2023-05-20T04:48:31;15.03;;;11.70;;
10050;SDS011;5065;46.942;7.432;2023-05-20T04:51:00;14.50;;;12.27;;
10050;SDS011;5065;46.942;7.432;2023-05-20T04:53:27;13.90;;;11.50;;
10050;SDS011;5065;46.942;7.432;2023-05-20T04:55:55;15.50;;;12.07;;
10050;SDS011;5065;46.942;7.432;2023-05-20T04:58:22;13.00;;;11.00;;
10050;SDS011;5065;46.942;7.432;2023-05-20T05:00:50;18.40;;;11.93;;
10050;SDS011;5065;46.942;7.432;2023-05-20T05:03:17;15.47;;;12.10;;
10050;SDS011;5065;46.942;7.432;2023-05-20T05:05:44;13.60;;;11.13;;
10050;SDS011;5065;46.942;7.432;2023-05-20T05:08:13;14.07;;;11.53;;
10050;SDS011;5065;46.942;7.432;2023-05-20T05:10:41;13.50;;;11.93;;
10050;SDS011;5065;46.942;7.432;2023-05-20T05:13:10;14.20;;;12.20;;
10050;SDS011;5065;46.942;7.432;2023-05-20T05:15:37;15.73;;;11.47;;
10050;SDS011;5065;46.942;7.432;2023-05-20T05:18:04;14.80;;;11.53;;
10050;SDS011;5065;46.942;7.432;2023-05-20T05:20:31;16.00;;;12.20;;
10050;SDS011;5065;46.942;7.432;2023-05-20T05:22:59;13.83;;;11.20;;
10050;SDS011;5065;46.942;7.432;2023-05-20T05:25:27;15.70;;;11.23;;
10050;SDS011;5065;46.942;7.432;2023-05-20T05:27:54;14.43;;;11.43;;
10050;SDS011;5065;46.942;7.432;2023-05-20T05:30:21;14.20;;;11.63;;
10050;SDS011;5065;46.942;7.432;2023-05-20T05:32:49;13.77;;;12.07;;
10050;SDS011;5065;46.942;7.432;2023-05-20T05:35:16;15.00;;;11.30;;
10050;SDS011;5065;46.942;7.432;2023-05-20T05:37:43;16.07;;;11.60;;
10050;SDS011;5065;46.942;7.432;2023-05-20T05:40:11;14.70;;;11.63;;
10050;SDS011;5065;46.942;7.432;2023-05-20T05:42:39;16.87;;;11.40;;
10050;SDS011;5065;46.942;7.432;2023-05-20T05:45:07;13.90;;;11.00;;
10050;SDS011;5065;46.942;7.432;2023-05-20T05:47:35;15.97;;;12.13;;
10050;SDS011;5065;46.942;7.432;2023-05-20T05:50:02;16.20;;;11.47;;
10050;SDS011;5065;46.942;7.432;2023-05-20T05:52:30;13.00;;;11.13;;
10050;SDS011;5065;46.942;7.432;2023-05-20T05:54:57;18.13;;;12.20;;
10050;SDS011;5065;46.942;7.432;2023-05-20T05:57:24;18.37;;;12.13;;
10050;SDS011;5065;46.942;7.432;2023-05-20T05:59:53;19.97;;;12.53;;
10050;SDS011;5065;46.942;7.432;2023-05-20T06:02:20;14.33;;;11.03;;
10050;SDS011;5065;46.942;7.432;2023-05-20T06:04:48;13.00;;;11.60;;
10050;SDS011;5065;46.942;7.432;2023-05-20T06:07:15;18.07;;;11.57;;
10050;SDS011;5065;46.942;7.432;2023-05-20T06:09:42;16.57;;;11.83;;
10050;SDS011;5065;46.942;7.432;2023-05-20T06:12:10;14.87;;;12.40;;
10050;SDS011;5065;46.942;7.432;2023-05-20T06:14:37;17.43;;;11.60;;
10050;SDS011;5065;46.942;7.432;2023-05-20T06:17:08;13.73;;;11.50;;
10050;SDS011;5065;46.942;7.432;2023-05-20T06:19:35;15.20;;;12.10;;
10050;SDS011;5065;46.942;7.432;2023-05-20T06:22:03;15.43;;;11.63;;
10050;SDS011;5065;46.942;7.432;2023-05-20T06:24:30;14.20;;;10.77;;
10050;SDS011;5065;46.942;7.432;2023-05-20T06:26:58;14.30;;;11.23;;
10050;SDS011;5065;46.942;7.432;2023-05-20T06:29:25;14.87;;;11.73;;
10050;SDS011;5065;46.942;7.432;2023-05-20T06:31:52;13.60;;;11.77;;
10050;SDS011;5065;46.942;7.432;2023-05-20T06:34:21;13.07;;;9.87;;
10050;SDS011;5065;46.942;7.432;2023-05-20T06:36:48;14.57;;;10.90;;
10050;SDS011;5065;46.942;7.432;2023-05-20T06:39:15;14.00;;;10.70;;
10050;SDS011;5065;46.942;7.432;2023-05-20T06:41:43;16.93;;;11.43;;
10050;SDS011;5065;46.942;7.432;2023-05-20T06:44:10;14.17;;;10.97;;
10050;SDS011;5065;46.942;7.432;2023-05-20T06:46:37;16.17;;;10.33;;
10050;SDS011;5065;46.942;7.432;2023-05-20T06:49:04;13.60;;;10.60;;
10050;SDS011;5065;46.942;7.432;2023-05-20T06:51:33;17.93;;;11.20;;
10050;SDS011;5065;46.942;7.432;2023-05-20T06:54:05;21.60;;;14.87;;
10050;SDS011;5065;46.942;7.432;2023-05-20T06:56:32;15.57;;;11.20;;
10050;SDS011;5065;46.942;7.432;2023-05-20T06:59:01;14.37;;;11.37;;
10050;SDS011;5065;46.942;7.432;2023-05-20T07:01:29;14.97;;;10.77;;
10050;SDS011;5065;46.942;7.432;2023-05-20T07:03:56;13.97;;;11.80;;
10050;SDS011;5065;46.942;7.432;2023-05-20T07:06:24;15.50;;;11.43;;
10050;SDS011;5065;46.942;7.432;2023-05-20T07:08:53;15.67;;;11.40;;
10050;SDS011;5065;46.942;7.432;2023-05-20T07:11:21;15.80;;;12.10;;
10050;SDS011;5065;46.942;7.432;2023-05-20T07:13:48;15.77;;;11.37;;
10050;SDS011;5065;46.942;7.432;2023-05-20T07:16:15;13.97;;;10.93;;
10050;SDS011;5065;46.942;7.432;2023-05-20T07:18:43;13.43;;;11.10;;
10050;SDS011;5065;46.942;7.432;2023-05-20T07:21:10;15.63;;;10.60;;
10050;SDS011;5065;46.942;7.432;2023-05-20T07:23:38;14.20;;;11.30;;
10050;SDS011;5065;46.942;7.432;2023-05-20T07:26:07;17.00;;;11.87;;
10050;SDS011;5065;46.942;7.432;2023-05-20T07:28:36;16.73;;;12.20;;
10050;SDS011;5065;46.942;7.432;2023-05-20T07:31:04;16.33;;;11.67;;
10050;SDS011;5065;46.942;7.432;2023-05-20T07:33:31;13.57;;;12.00;;
10050;SDS011;5065;46.942;7.432;2023-05-20T07:35:59;15.43;;;11.90;;
10050;SDS011;5065;46.942;7.432;2023-05-20T07:38:26;13.33;;;11.03;;
10050;SDS011;5065;46.942;7.432;2023-05-20T07:40:54;15.37;;;11.00;;
10050;SDS011;5065;46.942;7.432;2023-05-20T07:43:23;16.00;;;12.33;;
10050;SDS011;5065;46.942;7.432;2023-05-20T07:45:50;13.27;;;11.07;;
10050;SDS011;5065;46.942;7.432;2023-05-20T07:48:17;14.30;;;11.50;;
10050;SDS011;5065;46.942;7.432;2023-05-20T07:50:44;15.80;;;11.67;;
10050;SDS011;5065;46.942;7.432;2023-05-20T07:53:12;16.10;;;11.60;;
10050;SDS011;5065;46.942;7.432;2023-05-20T07:55:39;13.73;;;10.67;;
10050;SDS011;5065;46.942;7.432;2023-05-20T07:58:06;14.57;;;11.43;;
10050;SDS011;5065;46.942;7.432;2023-05-20T08:00:34;14.13;;;11.27;;
10050;SDS011;5065;46.942;7.432;2023-05-20T08:03:02;16.33;;;11.97;;
10050;SDS011;5065;46.942;7.432;2023-05-20T08:05:29;14.13;;;11.60;;
10050;SDS011;5065;46.942;7.432;2023-05-20T08:07:56;15.30;;;12.20;;
10050;SDS011;5065;46.942;7.432;2023-05-20T08:10:23;16.67;;;11.93;;
10050;SDS011;5065;46.942;7.432;2023-05-20T08:12:50;19.47;;;12.10;;
10050;SDS011;5065;46.942;7.432;2023-05-20T08:15:18;16.67;;;12.77;;
10050;SDS011;5065;46.942;7.432;2023-05-20T08:17:46;17.37;;;12.17;;
10050;SDS011;5065;46.942;7.432;2023-05-20T08:20:13;17.63;;;13.07;;
10050;SDS011;5065;46.942;7.432;2023-05-20T08:22:41;17.70;;;12.73;;
10050;SDS011;5065;46.942;7.432;2023-05-20T08:25:08;17.70;;;12.27;;
10050;SDS011;5065;46.942;7.432;2023-05-20T08:27:35;15.07;;;12.50;;
10050;SDS011;5065;46.942;7.432;2023-05-20T08:30:03;14.07;;;11.90;;
10050;SDS011;5065;46.942;7.432;2023-05-20T08:32:32;19.00;;;13.00;;
10050;SDS011;5065;46.942;7.432;2023-05-20T08:35:00;16.33;;;13.23;;
10050;SDS011;5065;46.942;7.432;2023-05-20T08:37:28;16.67;;;12.80;;
10050;SDS011;5065;46.942;7.432;2023-05-20T08:39:55;15.20;;;12.77;;
10050;SDS011;5065;46.942;7.432;2023-05-20T08:42:22;15.23;;;12.73;;
10050;SDS011;5065;46.942;7.432;2023-05-20T08:44:51;18.47;;;12.43;;
10050;SDS011;5065;46.942;7.432;2023-05-20T08:47:19;16.87;;;13.23;;
10050;SDS011;5065;46.942;7.432;2023-05-20T08:49:47;16.33;;;12.77;;
10050;SDS011;5065;46.942;7.432;2023-05-20T08:52:17;16.90;;;12.47;;
10050;SDS011;5065;46.942;7.432;2023-05-20T08:54:46;15.97;;;12.73;;
10050;SDS011;5065;46.942;7.432;2023-05-20T08:57:15;17.47;;;12.63;;
10050;SDS011;5065;46.942;7.432;2023-05-20T08:59:45;19.10;;;13.27;;
10050;SDS011;5065;46.942;7.432;2023-05-20T09:02:12;18.63;;;13.87;;
10050;SDS011;5065;46.942;7.432;2023-05-20T09:04:40;20.23;;;12.60;;
10050;SDS011;5065;46.942;7.432;2023-05-20T09:07:07;21.63;;;12.17;;
10050;SDS011;5065;46.942;7.432;2023-05-20T09:09:35;14.90;;;11.73;;
10050;SDS011;5065;46.942;7.432;2023-05-20T09:12:03;17.93;;;13.23;;
10050;SDS011;5065;46.942;7.432;2023-05-20T09:14:30;14.63;;;11.67;;
10050;SDS011;5065;46.942;7.432;2023-05-20T09:16:58;17.63;;;12.87;;
10050;SDS011;5065;46.942;7.432;2023-05-20T09:19:25;16.93;;;11.67;;
10050;SDS011;5065;46.942;7.432;2023-05-20T09:21:52;16.37;;;11.23;;
10050;SDS011;5065;46.942;7.432;2023-05-20T09:24:23;17.33;;;10.97;;
10050;SDS011;5065;46.942;7.432;2023-05-20T09:26:52;15.20;;;10.70;;
10050;SDS011;5065;46.942;7.432;2023-05-20T09:29:20;18.13;;;10.93;;
10050;SDS011;5065;46.942;7.432;2023-05-20T09:31:49;15.57;;;11.60;;
10050;SDS011;5065;46.942;7.432;2023-05-20T09:34:18;13.20;;;11.13;;
10050;SDS011;5065;46.942;7.432;2023-05-20T09:36:47;16.73;;;13.00;;
10050;SDS011;5065;46.942;7.432;2023-05-20T09:39:17;12.77;;;11.20;;
10050;SDS011;5065;46.942;7.432;2023-05-20T09:41:54;13.73;;;10.87;;
10050;SDS011;5065;46.942;7.432;2023-05-20T09:44:28;16.67;;;10.17;;
10050;SDS011;5065;46.942;7.432;2023-05-20T09:46:56;15.47;;;11.57;;
10050;SDS011;5065;46.942;7.432;2023-05-20T09:49:25;15.33;;;11.67;;
10050;SDS011;5065;46.942;7.432;2023-05-20T09:51:54;15.77;;;11.27;;
10050;SDS011;5065;46.942;7.432;2023-05-20T09:54:23;13.70;;;10.37;;
10050;SDS011;5065;46.942;7.432;2023-05-20T09:56:53;16.33;;;10.93;;
10050;SDS011;5065;46.942;7.432;2023-05-20T09:59:23;14.57;;;10.77;;
10050;SDS011;5065;46.942;7.432;2023-05-20T10:01:54;12.73;;;11.40;;
10050;SDS011;5065;46.942;7.432;2023-05-20T10:04:22;12.40;;;10.33;;
10050;SDS011;5065;46.942;7.432;2023-05-20T10:06:59;11.13;;;9.97;;
10050;SDS011;5065;46.942;7.432;2023-05-20T10:09:50;16.43;;;12.43;;
10050;SDS011;5065;46.942;7.432;2023-05-20T10:12:28;13.27;;;11.23;;
10050;SDS011;5065;46.942;7.432;2023-05-20T10:15:09;14.20;;;11.00;;
10050;SDS011;5065;46.942;7.432;2023-05-20T10:17:45;11.53;;;9.80;;
10050;SDS011;5065;46.942;7.432;2023-05-20T10:20:19;14.50;;;10.57;;
10050;SDS011;5065;46.942;7.432;2023-05-20T10:22:53;12.37;;;10.17;;
10050;SDS011;5065;46.942;7.432;2023-05-20T10:25:48;12.47;;;9.30;;
10050;SDS011;5065;46.942;7.432;2023-05-20T10:28:23;13.00;;;10.50;;
10050;SDS011;5065;46.942;7.432;2023-05-20T10:30:55;11.63;;;10.40;;
10050;SDS011;5065;46.942;7.432;2023-05-20T10:33:24;13.40;;;11.13;;
10050;SDS011;5065;46.942;7.432;2023-05-20T10:35:52;12.80;;;10.57;;
10050;SDS011;5065;46.942;7.432;2023-05-20T10:38:20;12.33;;;10.70;;
10050;SDS011;5065;46.942;7.432;2023-05-20T10:40:47;13.83;;;9.50;;
10050;SDS011;5065;46.942;7.432;2023-05-20T10:43:15;13.03;;;9.97;;
10050;SDS011;5065;46.942;7.432;2023-05-20T10:45:53;11.63;;;10.13;;
10050;SDS011;5065;46.942;7.432;2023-05-20T10:48:24;11.90;;;10.27;;
10050;SDS011;5065;46.942;7.432;2023-05-20T10:50:53;11.57;;;10.37;;
10050;SDS011;5065;46.942;7.432;2023-05-20T10:53:28;13.53;;;11.40;;
10050;SDS011;5065;46.942;7.432;2023-05-20T10:56:03;13.87;;;10.67;;
10050;SDS011;5065;46.942;7.432;2023-05-20T10:58:35;17.20;;;11.40;;
10050;SDS011;5065;46.942;7.432;2023-05-20T11:01:05;14.00;;;12.17;;
10050;SDS011;5065;46.942;7.432;2023-05-20T11:03:32;18.80;;;12.37;;
10050;SDS011;5065;46.942;7.432;2023-05-20T11:06:01;14.67;;;11.13;;
10050;SDS011;5065;46.942;7.432;2023-05-20T11:08:36;11.77;;;10.57;;
10050;SDS011;5065;46.942;7.432;2023-05-20T11:11:03;13.30;;;12.00;;
10050;SDS011;5065;46.942;7.432;2023-05-20T11:13:30;15.13;;;11.30;;
10050;SDS011;5065;46.942;7.432;2023-05-20T11:15:57;14.33;;;11.63;;
10050;SDS011;5065;46.942;7.432;2023-05-20T11:18:27;14.33;;;11.23;;
10050;SDS011;5065;46.942;7.432;2023-05-20T11:20:56;13.37;;;10.97;;
10050;SDS011;5065;46.942;7.432;2023-05-20T11:23:24;13.83;;;10.70;;
10050;SDS011;5065;46.942;7.432;2023-05-20T11:25:53;13.53;;;10.83;;
10050;SDS011;5065;46.942;7.432;2023-05-20T11:28:21;15.57;;;10.63;;
10050;SDS011;5065;46.942;7.432;2023-05-20T11:30:49;14.00;;;10.77;;
10050;SDS011;5065;46.942;7.432;2023-05-20T11:33:17;14.00;;;11.57;;
10050;SDS011;5065;46.942;7.432;2023-05-20T11:35:46;15.97;;;11.07;;
10050;SDS011;5065;46.942;7.432;2023-05-20T11:38:15;11.67;;;10.40;;
10050;SDS011;5065;46.942;7.432;2023-05-20T11:40:43;13.43;;;11.03;;
10050;SDS011;5065;46.942;7.432;2023-05-20T11:43:11;11.83;;;10.63;;
10050;SDS011;5065;46.942;7.432;2023-05-20T11:45:39;14.20;;;12.27;;
10050;SDS011;5065;46.942;7.432;2023-05-20T11:48:07;13.80;;;10.67;;
10050;SDS011;5065;46.942;7.432;2023-05-20T11:50:35;12.37;;;10.87;;
10050;SDS011;5065;46.942;7.432;2023-05-20T11:53:06;13.13;;;11.10;;
10050;SDS011;5065;46.942;7.432;2023-05-20T11:55:43;15.57;;;10.90;;
10050;SDS011;5065;46.942;7.432;2023-05-20T11:58:14;15.83;;;11.10;;
10050;SDS011;5065;46.942;7.432;2023-05-20T12:00:42;12.33;;;10.80;;
10050;SDS011;5065;46.942;7.432;2023-05-20T12:03:09;15.20;;;11.43;;
10050;SDS011;5065;46.942;7.432;2023-05-20T12:05:37;11.03;;;9.83;;
10050;SDS011;5065;46.942;7.432;2023-05-20T12:08:06;12.50;;;11.00;;
10050;SDS011;5065;46.942;7.432;2023-05-20T12:10:33;11.53;;;10.30;;
10050;SDS011;5065;46.942;7.432;2023-05-20T12:13:02;13.77;;;11.40;;
10050;SDS011;5065;46.942;7.432;2023-05-20T12:15:32;12.27;;;10.30;;
10050;SDS011;5065;46.942;7.432;2023-05-20T12:18:00;13.60;;;10.93;;
10050;SDS011;5065;46.942;7.432;2023-05-20T12:20:28;11.93;;;10.83;;
10050;SDS011;5065;46.942;7.432;2023-05-20T12:22:55;14.37;;;10.00;;
10050;SDS011;5065;46.942;7.432;2023-05-20T12:25:25;13.37;;;11.17;;
10050;SDS011;5065;46.942;7.432;2023-05-20T12:27:52;14.87;;;11.40;;
10050;SDS011;5065;46.942;7.432;2023-05-20T12:30:20;13.97;;;10.77;;
10050;SDS011;5065;46.942;7.432;2023-05-20T12:32:49;12.87;;;11.57;;
10050;SDS011;5065;46.942;7.432;2023-05-20T12:35:21;13.73;;;10.93;;
10050;SDS011;5065;46.942;7.432;2023-05-20T12:37:50;13.63;;;11.00;;
10050;SDS011;5065;46.942;7.432;2023-05-20T12:40:17;14.83;;;10.60;;
10050;SDS011;5065;46.942;7.432;2023-05-20T12:42:46;12.70;;;11.40;;
10050;SDS011;5065;46.942;7.432;2023-05-20T12:45:13;14.90;;;11.93;;
10050;SDS011;5065;46.942;7.432;2023-05-20T12:47:41;14.00;;;11.57;;
10050;SDS011;5065;46.942;7.432;2023-05-20T12:50:10;13.37;;;11.70;;
10050;SDS011;5065;46.942;7.432;2023-05-20T12:52:37;13.00;;;11.07;;
10050;SDS011;5065;46.942;7.432;2023-05-20T12:55:06;19.00;;;11.87;;
10050;SDS011;5065;46.942;7.432;2023-05-20T12:57:38;15.83;;;11.73;;
10050;SDS011;5065;46.942;7.432;2023-05-20T13:00:07;13.00;;;11.00;;
10050;SDS011;5065;46.942;7.432;2023-05-20T13:02:36;16.83;;;11.93;;
10050;SDS011;5065;46.942;7.432;2023-05-20T13:05:04;15.03;;;11.43;;
10050;SDS011;5065;46.942;7.432;2023-05-20T13:07:32;13.60;;;11.40;;
10050;SDS011;5065;46.942;7.432;2023-05-20T13:09:59;13.00;;;11.37;;
10050;SDS011;5065;46.942;7.432;2023-05-20T13:12:27;12.20;;;10.90;;
10050;SDS011;5065;46.942;7.432;2023-05-20T13:14:55;12.80;;;11.50;;
10050;SDS011;5065;46.942;7.432;2023-05-20T13:17:23;14.40;;;11.87;;
10050;SDS011;5065;46.942;7.432;2023-05-20T13:19:51;15.97;;;11.60;;
10050;SDS011;5065;46.942;7.432;2023-05-20T13:22:18;13.10;;;11.80;;
10050;SDS011;5065;46.942;7.432;2023-05-20T13:24:46;13.17;;;11.77;;
10050;SDS011;5065;46.942;7.432;2023-05-20T13:27:13;12.60;;;11.30;;
10050;SDS011;5065;46.942;7.432;2023-05-20T13:29:41;13.07;;;11.63;;
10050;SDS011;5065;46.942;7.432;2023-05-20T13:32:08;18.20;;;12.13;;
10050;SDS011;5065;46.942;7.432;2023-05-20T13:34:37;15.20;;;12.23;;
10050;SDS011;5065;46.942;7.432;2023-05-20T13:37:04;18.03;;;10.90;;
10050;SDS011;5065;46.942;7.432;2023-05-20T13:39:31;14.10;;;12.03;;
10050;SDS011;5065;46.942;7.432;2023-05-20T13:41:59;14.40;;;11.23;;
10050;SDS011;5065;46.942;7.432;2023-05-20T13:44:26;14.20;;;12.70;;
10050;SDS011;5065;46.942;7.432;2023-05-20T13:46:54;12.83;;;11.53;;
10050;SDS011;5065;46.942;7.432;2023-05-20T13:49:22;17.90;;;12.90;;
10050;SDS011;5065;46.942;7.432;2023-05-20T13:51:51;16.03;;;13.13;;
10050;SDS011;5065;46.942;7.432;2023-05-20T13:54:19;15.00;;;11.83;;
10050;SDS011;5065;46.942;7.432;2023-05-20T13:56:46;13.03;;;11.60;;
10050;SDS011;5065;46.942;7.432;2023-05-20T13:59:13;13.07;;;11.73;;
10050;SDS011;5065;46.942;7.432;2023-05-20T14:01:41;13.43;;;12.03;;
10050;SDS011;5065;46.942;7.432;2023-05-20T14:04:09;14.30;;;12.40;;
10050;SDS011;5065;46.942;7.432;2023-05-20T14:06:37;13.37;;;11.60;;
10050;SDS011;5065;46.942;7.432;2023-05-20T14:09:06;16.83;;;11.80;;
10050;SDS011;5065;46.942;7.432;2023-05-20T14:11:34;14.10;;;12.27;;
10050;SDS011;5065;46.942;7.432;2023-05-20T14:14:01;13.10;;;11.17;;
10050;SDS011;5065;46.942;7.432;2023-05-20T14:16:28;13.60;;;11.60;;
10050;SDS011;5065;46.942;7.432;2023-05-20T14:18:56;14.70;;;12.13;;
10050;SDS011;5065;46.942;7.432;2023-05-20T14:21:23;16.53;;;12.67;;
10050;SDS011;5065;46.942;7.432;2023-05-20T14:23:50;12.83;;;11.53;;
10050;SDS011;5065;46.942;7.432;2023-05-20T14:26:18;13.37;;;11.27;;
10050;SDS011;5065;46.942;7.432;2023-05-20T14:28:45;13.70;;;11.87;;
10050;SDS011;5065;46.942;7.432;2023-05-20T14:31:13;14.07;;;11.80;;
10050;SDS011;5065;46.942;7.432;2023-05-20T14:33:40;15.80;;;12.67;;
10050;SDS011;5065;46.942;7.432;2023-05-20T14:36:07;13.97;;;12.40;;
10050;SDS011;5065;46.942;7.432;2023-05-20T14:38:35;16.03;;;11.73;;
10050;SDS011;5065;46.942;7.432;2023-05-20T14:41:03;14.10;;;12.70;;
10050;SDS011;5065;46.942;7.432;2023-05-20T14:43:31;14.60;;;12.90;;